createdAt,value
2023-03-30T00:02:43.700Z,3.04
2023-03-30T00:05:29.809Z,3.56
2023-03-30T00:08:15.619Z,3.16
2023-03-30T00:11:01.889Z,3.29
2023-03-30T00:13:48.005Z,3.18
2023-03-30T00:16:33.846Z,3.16
2023-03-30T00:19:20.255Z,3.39
2023-03-30T00:22:06.096Z,3.41
2023-03-30T00:24:51.920Z,3.07
2023-03-30T00:27:37.910Z,3.44
2023-03-30T00:30:23.875Z,3.57
2023-03-30T00:33:09.778Z,3.18
2023-03-30T00:35:55.729Z,2.96
2023-03-30T00:38:41.544Z,3.09
2023-03-30T00:41:27.342Z,3.15
2023-03-30T00:44:13.330Z,2.88
2023-03-30T00:46:59.255Z,3.22
2023-03-30T00:49:45.123Z,2.85
2023-03-30T00:52:30.928Z,2.85
2023-03-30T00:55:16.710Z,3.31
2023-03-30T00:58:02.549Z,3.38
2023-03-30T01:00:48.428Z,3.22
2023-03-30T01:03:34.424Z,3.16
2023-03-30T01:06:20.401Z,3.36
2023-03-30T01:09:06.234Z,3.28
2023-03-30T01:11:52.210Z,3.54
2023-03-30T01:14:38.039Z,3.35
2023-03-30T01:17:23.984Z,3.36
2023-03-30T01:20:10.064Z,3.25
2023-03-30T01:22:55.809Z,3.53
2023-03-30T01:25:41.672Z,3.35
2023-03-30T01:28:27.510Z,3.30
2023-03-30T01:31:13.513Z,3.48
2023-03-30T01:33:59.426Z,3.20
2023-03-30T01:36:45.209Z,3.36
2023-03-30T01:39:31.208Z,3.98
2023-03-30T01:42:17.263Z,3.44
2023-03-30T01:45:03.029Z,3.18
2023-03-30T01:47:48.921Z,3.20
2023-03-30T01:50:34.840Z,3.11
2023-03-30T01:53:20.725Z,3.20
2023-03-30T01:56:06.678Z,3.59
2023-03-30T01:58:52.405Z,3.56
2023-03-30T02:01:38.375Z,3.63
2023-03-30T02:04:24.264Z,3.52
2023-03-30T02:07:10.095Z,3.42
2023-03-30T02:09:58.108Z,3.72
2023-03-30T02:12:44.149Z,3.48
2023-03-30T02:15:29.970Z,3.61
2023-03-30T02:18:15.947Z,3.54
2023-03-30T02:21:01.746Z,3.22
2023-03-30T02:23:48.052Z,3.41
2023-03-30T02:26:34.048Z,3.60
2023-03-30T02:29:19.945Z,3.46
2023-03-30T02:32:05.807Z,3.65
2023-03-30T02:34:51.661Z,3.00
2023-03-30T02:37:37.582Z,3.55
2023-03-30T02:40:23.453Z,3.65
2023-03-30T02:43:09.177Z,3.71
2023-03-30T02:45:55.258Z,3.81
2023-03-30T02:48:41.356Z,3.65
2023-03-30T02:51:27.154Z,3.73
2023-03-30T02:54:13.102Z,3.63
2023-03-30T02:56:58.986Z,3.51
2023-03-30T02:59:44.904Z,3.57
2023-03-30T03:02:30.881Z,3.84
2023-03-30T03:05:16.843Z,3.86
2023-03-30T03:08:02.733Z,3.50
2023-03-30T03:10:48.820Z,3.62
2023-03-30T03:13:34.752Z,3.62
2023-03-30T03:16:20.731Z,3.75
2023-03-30T03:19:06.572Z,3.53
2023-03-30T03:21:52.548Z,3.48
2023-03-30T03:24:38.409Z,3.71
2023-03-30T03:27:24.135Z,3.62
2023-03-30T03:30:10.118Z,3.74
2023-03-30T03:32:56.073Z,3.75
2023-03-30T03:35:41.946Z,3.72
2023-03-30T03:38:27.977Z,3.79
2023-03-30T03:41:13.830Z,3.82
2023-03-30T03:43:59.799Z,3.55
2023-03-30T03:46:45.728Z,3.79
2023-03-30T03:49:31.704Z,4.00
2023-03-30T03:52:17.704Z,3.68
2023-03-30T03:55:03.401Z,3.49
2023-03-30T03:57:49.262Z,3.66
2023-03-30T04:00:35.249Z,3.67
2023-03-30T04:03:21.292Z,3.56
2023-03-30T04:06:07.312Z,3.82
2023-03-30T04:08:53.261Z,3.76
2023-03-30T04:11:39.052Z,3.66
2023-03-30T04:14:24.853Z,3.62
2023-03-30T04:17:10.772Z,3.76
2023-03-30T04:19:56.700Z,3.45
2023-03-30T04:22:42.716Z,3.43
2023-03-30T04:25:28.488Z,3.54
2023-03-30T04:28:14.362Z,3.52
2023-03-30T04:31:00.208Z,3.45
2023-03-30T04:33:47.464Z,3.75
2023-03-30T04:36:35.159Z,3.83
2023-03-30T04:39:21.096Z,3.32
2023-03-30T04:42:06.911Z,3.49
2023-03-30T04:44:52.813Z,3.32
2023-03-30T04:47:38.640Z,3.25
2023-03-30T04:50:24.546Z,3.32
2023-03-30T04:53:10.509Z,3.39
2023-03-30T04:55:56.275Z,3.27
2023-03-30T04:58:42.226Z,3.36
2023-03-30T05:01:28.153Z,3.36
2023-03-30T05:04:14.067Z,3.62
2023-03-30T05:06:59.982Z,3.53
2023-03-30T05:09:45.864Z,3.35
2023-03-30T05:12:31.856Z,3.33
2023-03-30T05:15:17.819Z,3.62
2023-03-30T05:18:03.674Z,3.51
2023-03-30T05:20:49.864Z,3.40
2023-03-30T05:23:35.726Z,3.79
2023-03-30T05:26:21.553Z,3.60
2023-03-30T05:29:07.474Z,3.65
2023-03-30T05:31:53.628Z,3.64
2023-03-30T05:34:39.808Z,3.89
2023-03-30T05:37:25.755Z,3.61
2023-03-30T05:40:11.605Z,4.00
2023-03-30T05:42:57.448Z,3.98
2023-03-30T05:45:43.113Z,3.89
2023-03-30T05:48:29.071Z,4.17
2023-03-30T05:51:15.022Z,3.84
2023-03-30T05:54:00.797Z,3.80
2023-03-30T05:56:46.998Z,3.89
2023-03-30T05:59:33.256Z,3.93
2023-03-30T06:02:19.131Z,3.98
2023-03-30T06:05:05.198Z,3.74
2023-03-30T06:07:50.977Z,3.77
2023-03-30T06:10:36.862Z,3.98
2023-03-30T06:13:22.837Z,3.78
2023-03-30T06:16:08.610Z,3.82
2023-03-30T06:18:54.530Z,3.65
2023-03-30T06:21:40.382Z,3.59
2023-03-30T06:24:26.153Z,3.67
2023-03-30T06:27:12.003Z,3.57
2023-03-30T06:29:57.874Z,3.32
2023-03-30T06:32:43.861Z,3.50
2023-03-30T06:35:30.779Z,3.23
2023-03-30T06:38:16.674Z,3.16
2023-03-30T06:41:02.753Z,3.03
2023-03-30T06:43:48.743Z,3.21
2023-03-30T06:46:34.578Z,3.43
2023-03-30T06:49:20.568Z,3.55
2023-03-30T06:52:08.739Z,3.59
2023-03-30T06:54:54.808Z,3.45
2023-03-30T06:57:40.709Z,3.80
2023-03-30T07:00:26.612Z,3.56
2023-03-30T07:03:12.445Z,3.62
2023-03-30T07:05:58.662Z,3.76
2023-03-30T07:08:44.538Z,4.06
2023-03-30T07:11:30.519Z,4.32
2023-03-30T07:14:16.510Z,4.41
2023-03-30T07:17:02.479Z,4.57
2023-03-30T07:19:48.209Z,4.46
2023-03-30T07:22:34.066Z,4.28
2023-03-30T07:25:19.940Z,4.16
2023-03-30T07:28:05.982Z,3.90
2023-03-30T07:30:51.780Z,3.96
2023-03-30T07:33:37.645Z,3.63
2023-03-30T07:36:23.570Z,3.72
2023-03-30T07:39:09.729Z,3.59
2023-03-30T07:41:55.653Z,3.42
2023-03-30T07:44:41.632Z,3.50
2023-03-30T07:47:27.434Z,3.49
2023-03-30T07:50:13.261Z,3.46
2023-03-30T07:52:59.092Z,3.55
2023-03-30T07:55:44.953Z,3.66
2023-03-30T07:58:30.885Z,3.48
2023-03-30T08:01:16.716Z,3.60
2023-03-30T08:04:02.667Z,3.54
2023-03-30T08:06:48.666Z,3.28
2023-03-30T08:09:34.637Z,3.41
2023-03-30T08:12:20.532Z,3.55
2023-03-30T08:15:06.311Z,3.34
2023-03-30T08:17:52.286Z,3.38
2023-03-30T08:20:38.130Z,3.20
2023-03-30T08:23:24.179Z,3.60
2023-03-30T08:26:10.161Z,3.39
2023-03-30T08:28:56.105Z,3.05
2023-03-30T08:31:42.097Z,3.31
2023-03-30T08:34:28.549Z,3.55
2023-03-30T08:37:14.527Z,2.88
2023-03-30T08:40:00.599Z,3.08
2023-03-30T08:42:46.488Z,2.94
2023-03-30T08:45:32.498Z,2.97
2023-03-30T08:48:18.421Z,2.98
2023-03-30T08:51:04.461Z,3.06
2023-03-30T08:53:50.748Z,3.48
2023-03-30T08:56:36.790Z,3.18
2023-03-30T08:59:22.671Z,3.31
2023-03-30T09:02:10.727Z,3.35
2023-03-30T09:04:56.700Z,3.32
2023-03-30T09:07:42.564Z,3.08
2023-03-30T09:10:28.520Z,3.08
2023-03-30T09:13:14.230Z,3.00
2023-03-30T09:16:00.196Z,3.15
2023-03-30T09:18:46.233Z,2.82
2023-03-30T09:21:32.011Z,2.93
2023-03-30T09:24:18.091Z,2.90
2023-03-30T09:27:03.972Z,2.76
2023-03-30T09:29:49.857Z,2.45
2023-03-30T09:32:35.861Z,2.93
2023-03-30T09:35:21.704Z,2.90
2023-03-30T09:38:07.469Z,2.52
2023-03-30T09:40:53.366Z,2.53
2023-03-30T09:43:39.162Z,2.72
2023-03-30T09:46:25.183Z,2.50
2023-03-30T09:49:10.983Z,2.59
2023-03-30T09:51:56.942Z,2.24
2023-03-30T09:54:42.847Z,2.42
2023-03-30T09:57:28.755Z,2.50
2023-03-30T10:00:14.861Z,2.50
2023-03-30T10:03:01.129Z,2.27
2023-03-30T10:05:47.320Z,2.47
2023-03-30T10:08:33.248Z,2.56
2023-03-30T10:11:19.145Z,2.34
2023-03-30T10:14:05.003Z,2.64
2023-03-30T10:16:51.009Z,2.43
2023-03-30T10:19:38.866Z,2.70
2023-03-30T10:22:25.658Z,2.60
2023-03-30T10:25:11.639Z,2.72
2023-03-30T10:27:57.508Z,2.66
2023-03-30T10:30:43.476Z,2.40
2023-03-30T10:33:29.369Z,2.62
2023-03-30T10:36:15.286Z,2.52
2023-03-30T10:39:01.134Z,2.52
2023-03-30T10:41:46.950Z,2.68
2023-03-30T10:44:32.852Z,2.59
2023-03-30T10:47:18.907Z,2.63
2023-03-30T10:50:04.783Z,2.63
2023-03-30T10:52:58.399Z,2.58
2023-03-30T10:55:45.219Z,2.52
2023-03-30T10:58:31.141Z,2.61
2023-03-30T11:01:17.063Z,2.61
2023-03-30T11:04:12.341Z,2.57
2023-03-30T11:07:06.759Z,2.47
2023-03-30T11:09:52.591Z,2.47
2023-03-30T11:12:38.561Z,2.52
2023-03-30T11:15:24.555Z,2.71
2023-03-30T11:18:10.527Z,2.47
2023-03-30T11:20:56.903Z,2.52
2023-03-30T11:23:42.846Z,2.43
2023-03-30T11:26:28.744Z,2.54
2023-03-30T11:29:14.577Z,2.39
2023-03-30T11:32:00.467Z,2.63
2023-03-30T11:34:46.426Z,2.81
2023-03-30T11:37:32.249Z,2.69
2023-03-30T11:40:17.989Z,2.63
2023-03-30T11:43:03.877Z,2.86
2023-03-30T11:45:49.787Z,2.49
2023-03-30T11:48:35.758Z,2.66
2023-03-30T11:51:21.637Z,2.56
2023-03-30T11:54:07.456Z,2.46
2023-03-30T11:56:53.369Z,2.82
2023-03-30T11:59:39.272Z,2.69
2023-03-30T12:02:25.267Z,2.50
2023-03-30T12:05:11.220Z,2.63
2023-03-30T12:07:57.074Z,2.73
2023-03-30T12:10:43.002Z,2.68
2023-03-30T12:13:38.156Z,2.64
2023-03-30T12:16:30.698Z,2.92
2023-03-30T12:19:16.523Z,2.73
2023-03-30T12:22:02.364Z,2.77
2023-03-30T12:24:48.386Z,2.70
2023-03-30T12:27:34.493Z,2.84
2023-03-30T12:30:20.263Z,2.65
2023-03-30T12:33:06.260Z,2.71
2023-03-30T12:35:52.262Z,2.76
2023-03-30T12:38:38.091Z,2.82
2023-03-30T12:41:24.166Z,2.95
2023-03-30T12:44:10.125Z,2.87
2023-03-30T12:46:56.007Z,2.68
2023-03-30T12:49:41.869Z,3.06
2023-03-30T12:52:27.705Z,2.86
2023-03-30T12:55:13.672Z,2.54
2023-03-30T12:57:59.501Z,3.16
2023-03-30T13:00:45.396Z,2.95
2023-03-30T13:03:31.456Z,2.74
2023-03-30T13:06:17.301Z,2.94
2023-03-30T13:09:03.230Z,2.79
2023-03-30T13:11:49.148Z,2.72
2023-03-30T13:14:35.035Z,2.81
2023-03-30T13:17:20.924Z,2.78
2023-03-30T13:20:15.396Z,2.84
2023-03-30T13:23:08.237Z,2.95
2023-03-30T13:25:54.205Z,2.88
2023-03-30T13:28:39.958Z,2.81
2023-03-30T13:31:25.903Z,2.87
2023-03-30T13:34:14.406Z,2.87
2023-03-30T13:37:00.687Z,3.12
2023-03-30T13:39:46.449Z,2.92
2023-03-30T13:42:32.356Z,3.05
2023-03-30T13:45:18.163Z,3.14
2023-03-30T13:48:04.175Z,3.10
2023-03-30T13:50:50.006Z,3.42
2023-03-30T13:53:35.851Z,3.29
2023-03-30T13:56:21.901Z,3.17
2023-03-30T13:59:07.765Z,3.22
2023-03-30T14:01:53.834Z,3.06
2023-03-30T14:04:40.082Z,3.54
2023-03-30T14:07:26.095Z,3.40
2023-03-30T14:10:13.996Z,3.58
2023-03-30T14:12:59.838Z,3.27
2023-03-30T14:15:45.759Z,3.54
2023-03-30T14:18:31.655Z,3.23
2023-03-30T14:21:17.374Z,3.27
2023-03-30T14:24:03.317Z,3.43
2023-03-30T14:26:49.582Z,3.32
2023-03-30T14:29:35.341Z,3.29
2023-03-30T14:32:21.464Z,3.30
2023-03-30T14:35:07.849Z,3.40
2023-03-30T14:37:55.783Z,3.22
2023-03-30T14:40:45.072Z,3.19
2023-03-30T14:43:30.951Z,3.21
2023-03-30T14:46:16.791Z,3.46
2023-03-30T14:49:02.715Z,3.34
2023-03-30T14:51:48.725Z,3.34
2023-03-30T14:54:34.568Z,3.47
2023-03-30T14:57:20.482Z,3.51
2023-03-30T15:00:06.410Z,3.33
2023-03-30T15:02:52.381Z,3.33
2023-03-30T15:05:38.277Z,3.54
2023-03-30T15:08:24.150Z,3.73
2023-03-30T15:11:10.147Z,3.72
2023-03-30T15:13:56.039Z,3.61
2023-03-30T15:16:41.923Z,3.29
2023-03-30T15:19:27.959Z,3.63
2023-03-30T15:22:13.822Z,3.81
2023-03-30T15:24:59.837Z,3.51
2023-03-30T15:27:45.746Z,3.66
2023-03-30T15:30:31.569Z,3.75
2023-03-30T15:33:17.461Z,3.77
2023-03-30T15:36:03.419Z,3.64
2023-03-30T15:38:49.380Z,3.69
2023-03-30T15:41:35.272Z,3.81
2023-03-30T15:44:21.096Z,3.95
2023-03-30T15:47:07.034Z,3.63
2023-03-30T15:49:53.009Z,3.87
2023-03-30T15:52:38.965Z,3.65
2023-03-30T15:55:24.822Z,3.79
2023-03-30T15:58:10.679Z,4.04
2023-03-30T16:00:56.745Z,3.90
2023-03-30T16:03:42.680Z,3.87
2023-03-30T16:06:30.520Z,3.90
2023-03-30T16:09:16.449Z,4.09
2023-03-30T16:12:02.400Z,4.19
2023-03-30T16:14:48.146Z,4.11
2023-03-30T16:17:34.246Z,4.16
2023-03-30T16:20:20.285Z,4.29
2023-03-30T16:23:06.096Z,4.24
2023-03-30T16:25:51.849Z,3.89
2023-03-30T16:28:37.664Z,4.33
2023-03-30T16:31:23.560Z,3.91
2023-03-30T16:34:09.505Z,4.79
2023-03-30T16:36:55.950Z,4.34
2023-03-30T16:39:42.481Z,4.39
2023-03-30T16:42:28.377Z,4.19
2023-03-30T16:45:14.276Z,4.25
2023-03-30T16:48:00.282Z,4.38
2023-03-30T16:50:45.966Z,4.50
2023-03-30T16:53:32.018Z,4.33
2023-03-30T16:56:18.083Z,4.27
2023-03-30T16:59:03.913Z,4.51
2023-03-30T17:01:50.144Z,4.35
2023-03-30T17:04:36.271Z,4.15
2023-03-30T17:07:22.182Z,4.42
2023-03-30T17:10:08.129Z,4.22
2023-03-30T17:12:54.005Z,4.14
2023-03-30T17:15:39.916Z,4.34
2023-03-30T17:18:25.794Z,4.37
2023-03-30T17:21:11.661Z,4.40
2023-03-30T17:23:57.660Z,4.31
2023-03-30T17:26:43.626Z,4.40
2023-03-30T17:29:29.537Z,4.57
2023-03-30T17:32:15.536Z,4.28
2023-03-30T17:35:01.462Z,4.51
2023-03-30T17:37:47.306Z,4.54
2023-03-30T17:40:33.217Z,4.57
2023-03-30T17:43:19.066Z,4.40
2023-03-30T17:46:04.983Z,4.75
2023-03-30T17:48:50.941Z,4.73
2023-03-30T17:51:36.993Z,4.50
2023-03-30T17:54:22.905Z,4.75
2023-03-30T17:57:08.887Z,4.80
2023-03-30T17:59:54.870Z,4.82
2023-03-30T18:02:40.894Z,4.81
2023-03-30T18:05:26.741Z,4.60
2023-03-30T18:08:12.689Z,4.57
2023-03-30T18:10:58.602Z,4.93
2023-03-30T18:13:44.547Z,4.54
2023-03-30T18:16:30.612Z,4.80
2023-03-30T18:19:16.392Z,4.64
2023-03-30T18:22:02.375Z,4.15
2023-03-30T18:24:50.335Z,4.31
2023-03-30T18:27:36.196Z,4.29
2023-03-30T18:30:22.125Z,4.26
2023-03-30T18:33:08.097Z,4.24
2023-03-30T18:35:54.025Z,4.58
2023-03-30T18:38:40.052Z,4.76
2023-03-30T18:41:25.933Z,4.59
2023-03-30T18:44:13.393Z,4.79
2023-03-30T18:46:59.249Z,4.84
2023-03-30T18:49:45.066Z,4.85
2023-03-30T18:52:30.879Z,4.74
2023-03-30T18:55:16.718Z,4.60
2023-03-30T18:58:02.566Z,4.62
2023-03-30T19:00:48.570Z,4.52
2023-03-30T19:03:34.746Z,4.44
2023-03-30T19:06:20.588Z,4.70
2023-03-30T19:09:06.532Z,4.61
2023-03-30T19:11:52.249Z,4.68
2023-03-30T19:14:38.117Z,4.79
2023-03-30T19:17:24.173Z,4.64
2023-03-30T19:20:10.329Z,4.67
2023-03-30T19:22:56.262Z,4.93
2023-03-30T19:25:42.147Z,4.68
2023-03-30T19:28:28.014Z,4.74
2023-03-30T19:31:13.908Z,4.65
2023-03-30T19:33:59.810Z,4.52
2023-03-30T19:36:45.710Z,4.73
2023-03-30T19:39:31.713Z,4.89
2023-03-30T19:42:17.616Z,4.83
2023-03-30T19:45:03.539Z,4.87
2023-03-30T19:47:49.281Z,4.71
2023-03-30T19:50:35.252Z,4.33
2023-03-30T19:53:21.043Z,4.72
2023-03-30T19:56:06.852Z,4.81
2023-03-30T19:58:52.848Z,4.92
2023-03-30T20:01:38.688Z,4.76
2023-03-30T20:04:24.604Z,4.80
2023-03-30T20:07:10.548Z,4.79
2023-03-30T20:09:56.355Z,4.64
2023-03-30T20:12:42.184Z,5.09
2023-03-30T20:15:28.039Z,4.75
2023-03-30T20:18:13.907Z,4.93
2023-03-30T20:20:59.901Z,4.93
2023-03-30T20:23:45.767Z,4.75
2023-03-30T20:26:31.799Z,4.63
2023-03-30T20:29:17.789Z,4.90
2023-03-30T20:32:03.682Z,4.60
2023-03-30T20:34:49.987Z,4.92
2023-03-30T20:37:35.808Z,4.76
2023-03-30T20:40:21.786Z,5.08
2023-03-30T20:43:07.779Z,5.16
2023-03-30T20:45:53.660Z,4.81
2023-03-30T20:48:39.631Z,4.79
2023-03-30T20:51:25.530Z,4.98
2023-03-30T20:54:11.341Z,5.06
2023-03-30T20:56:57.154Z,4.89
2023-03-30T20:59:43.076Z,5.07
2023-03-30T21:02:30.395Z,5.14
2023-03-30T21:05:17.656Z,4.69
2023-03-30T21:08:03.610Z,5.00
2023-03-30T21:10:49.516Z,5.00
2023-03-30T21:13:35.506Z,5.03
2023-03-30T21:16:23.414Z,4.97
2023-03-30T21:19:09.233Z,4.80
2023-03-30T21:21:55.227Z,4.97
2023-03-30T21:24:40.997Z,4.71
2023-03-30T21:27:26.923Z,4.73
2023-03-30T21:30:12.898Z,4.71
2023-03-30T21:32:58.976Z,4.97
2023-03-30T21:35:45.336Z,4.92
2023-03-30T21:38:31.131Z,4.84
2023-03-30T21:41:17.077Z,4.79
2023-03-30T21:44:02.995Z,4.83
2023-03-30T21:46:48.885Z,4.86
2023-03-30T21:49:34.829Z,5.24
2023-03-30T21:52:20.740Z,5.00
2023-03-30T21:55:06.535Z,5.00
2023-03-30T21:57:52.523Z,4.97
2023-03-30T22:00:38.451Z,5.17
2023-03-30T22:03:24.778Z,5.31
2023-03-30T22:06:11.131Z,5.39
2023-03-30T22:08:56.999Z,5.63
2023-03-30T22:11:42.883Z,5.56
2023-03-30T22:14:28.866Z,5.73
2023-03-30T22:17:14.675Z,5.74
2023-03-30T22:20:00.549Z,5.39
2023-03-30T22:22:46.226Z,5.53
2023-03-30T22:25:32.251Z,5.50
2023-03-30T22:28:18.305Z,5.48
2023-03-30T22:31:04.345Z,5.47
2023-03-30T22:33:50.546Z,5.16
2023-03-30T22:36:36.427Z,5.44
2023-03-30T22:39:22.122Z,5.40
2023-03-30T22:42:08.181Z,5.53
2023-03-30T22:44:54.106Z,5.50
2023-03-30T22:47:42.055Z,4.92
2023-03-30T22:50:28.022Z,5.22
2023-03-30T22:53:13.998Z,5.29
2023-03-30T22:55:59.935Z,4.92
2023-03-30T22:58:45.901Z,5.14
2023-03-30T23:01:31.771Z,5.35
2023-03-30T23:04:18.229Z,5.23
2023-03-30T23:07:04.062Z,5.33
2023-03-30T23:09:49.884Z,4.91
2023-03-30T23:12:35.605Z,4.72
2023-03-30T23:15:21.817Z,4.97
2023-03-30T23:18:07.970Z,5.00
2023-03-30T23:20:54.188Z,4.92
2023-03-30T23:23:40.099Z,5.01
2023-03-30T23:26:25.944Z,5.05
2023-03-30T23:29:11.866Z,5.05
2023-03-30T23:31:57.763Z,4.95
2023-03-30T23:34:43.731Z,5.19
2023-03-30T23:37:29.434Z,5.07
2023-03-30T23:40:15.446Z,5.26
2023-03-30T23:43:01.427Z,5.21
2023-03-30T23:45:47.246Z,5.26
2023-03-30T23:48:33.189Z,5.36
2023-03-30T23:51:19.223Z,5.71
2023-03-30T23:54:05.140Z,5.92
2023-03-30T23:56:51.099Z,5.62
2023-03-30T23:59:36.874Z,5.76
